sensor_id;sensor_type;location;lat;lon;timestamp;temperature;humidity
16160;DHT22;8185;57.818;15.224;2023-02-23T00:00:24;-0.60;99.90
16160;DHT22;8185;57.818;15.224;2023-02-23T00:02:54;-0.60;99.90
16160;DHT22;8185;57.818;15.224;2023-02-23T00:05:24;-0.60;99.90
16160;DHT22;8185;57.818;15.224;2023-02-23T00:07:52;-0.60;99.90
16160;DHT22;8185;57.818;15.224;2023-02-23T00:10:21;-0.60;99.90
16160;DHT22;8185;57.818;15.224;2023-02-23T00:12:56;-0.60;99.90
16160;DHT22;8185;57.818;15.224;2023-02-23T00:15:24;-0.60;99.90
16160;DHT22;8185;57.818;15.224;2023-02-23T00:17:52;-0.60;99.90
16160;DHT22;8185;57.818;15.224;2023-02-23T00:20:20;-0.50;99.90
16160;DHT22;8185;57.818;15.224;2023-02-23T00:22:53;-0.60;99.90
16160;DHT22;8185;57.818;15.224;2023-02-23T00:25:20;-0.60;99.90
16160;DHT22;8185;57.818;15.224;2023-02-23T00:27:48;-0.60;99.90
16160;DHT22;8185;57.818;15.224;2023-02-23T00:30:18;-0.60;99.90
16160;DHT22;8185;57.818;15.224;2023-02-23T00:32:46;-0.60;99.90
16160;DHT22;8185;57.818;15.224;2023-02-23T00:35:14;-0.60;99.90
16160;DHT22;8185;57.818;15.224;2023-02-23T00:37:44;-0.60;99.90
16160;DHT22;8185;57.818;15.224;2023-02-23T00:40:13;-0.60;99.90
16160;DHT22;8185;57.818;15.224;2023-02-23T00:42:42;-0.60;99.90
16160;DHT22;8185;57.818;15.224;2023-02-23T00:45:11;-0.60;99.90
16160;DHT22;8185;57.818;15.224;2023-02-23T00:47:41;-0.60;99.90
16160;DHT22;8185;57.818;15.224;2023-02-23T00:50:11;-0.60;99.90
16160;DHT22;8185;57.818;15.224;2023-02-23T00:52:40;-0.70;99.90
16160;DHT22;8185;57.818;15.224;2023-02-23T00:55:09;-0.70;99.90
16160;DHT22;8185;57.818;15.224;2023-02-23T00:57:37;-0.70;99.90
16160;DHT22;8185;57.818;15.224;2023-02-23T01:00:06;-0.70;99.90
16160;DHT22;8185;57.818;15.224;2023-02-23T01:02:43;-0.70;99.90
16160;DHT22;8185;57.818;15.224;2023-02-23T01:05:10;-0.70;99.90
16160;DHT22;8185;57.818;15.224;2023-02-23T01:07:38;-0.70;99.90
16160;DHT22;8185;57.818;15.224;2023-02-23T01:10:07;-0.70;99.90
16160;DHT22;8185;57.818;15.224;2023-02-23T01:12:46;-0.70;99.90
16160;DHT22;8185;57.818;15.224;2023-02-23T01:15:14;-0.70;99.90
16160;DHT22;8185;57.818;15.224;2023-02-23T01:17:43;-0.70;99.90
16160;DHT22;8185;57.818;15.224;2023-02-23T01:20:13;-0.70;99.90
16160;DHT22;8185;57.818;15.224;2023-02-23T01:22:43;-0.70;99.90
16160;DHT22;8185;57.818;15.224;2023-02-23T01:25:10;-0.70;99.90
16160;DHT22;8185;57.818;15.224;2023-02-23T01:27:38;-0.70;99.90
16160;DHT22;8185;57.818;15.224;2023-02-23T01:30:07;-0.70;99.90
16160;DHT22;8185;57.818;15.224;2023-02-23T01:32:35;-0.70;99.90
16160;DHT22;8185;57.818;15.224;2023-02-23T01:35:06;-0.70;99.90
16160;DHT22;8185;57.818;15.224;2023-02-23T01:37:34;-0.70;99.90
16160;DHT22;8185;57.818;15.224;2023-02-23T01:40:02;-0.70;99.90
16160;DHT22;8185;57.818;15.224;2023-02-23T01:42:36;-0.70;99.90
16160;DHT22;8185;57.818;15.224;2023-02-23T01:48:03;-0.60;99.90
16160;DHT22;8185;57.818;15.224;2023-02-23T01:50:41;-0.70;99.90
16160;DHT22;8185;57.818;15.224;2023-02-23T01:53:09;-0.70;99.90
16160;DHT22;8185;57.818;15.224;2023-02-23T01:55:37;-0.70;99.90
16160;DHT22;8185;57.818;15.224;2023-02-23T01:58:08;-0.70;99.90
16160;DHT22;8185;57.818;15.224;2023-02-23T02:00:44;-0.70;99.90
16160;DHT22;8185;57.818;15.224;2023-02-23T02:03:18;-0.70;99.90
16160;DHT22;8185;57.818;15.224;2023-02-23T02:05:49;-0.70;99.90
16160;DHT22;8185;57.818;15.224;2023-02-23T02:08:17;-0.70;99.90
16160;DHT22;8185;57.818;15.224;2023-02-23T02:10:49;-0.70;99.90
16160;DHT22;8185;57.818;15.224;2023-02-23T02:13:23;-0.70;99.90
16160;DHT22;8185;57.818;15.224;2023-02-23T02:16:20;-0.70;99.90
16160;DHT22;8185;57.818;15.224;2023-02-23T02:22:18;-0.60;99.90
16160;DHT22;8185;57.818;15.224;2023-02-23T02:25:16;-0.60;99.90
16160;DHT22;8185;57.818;15.224;2023-02-23T02:28:36;-0.60;99.90
16160;DHT22;8185;57.818;15.224;2023-02-23T02:37:26;-0.60;99.90
16160;DHT22;8185;57.818;15.224;2023-02-23T02:40:00;-0.60;99.90
16160;DHT22;8185;57.818;15.224;2023-02-23T02:42:58;-0.60;99.90
16160;DHT22;8185;57.818;15.224;2023-02-23T02:45:31;-0.60;99.90
16160;DHT22;8185;57.818;15.224;2023-02-23T02:48:04;-0.60;99.90
16160;DHT22;8185;57.818;15.224;2023-02-23T02:50:38;-0.60;99.90
16160;DHT22;8185;57.818;15.224;2023-02-23T02:53:10;-0.60;99.90
16160;DHT22;8185;57.818;15.224;2023-02-23T02:55:40;-0.60;99.90
16160;DHT22;8185;57.818;15.224;2023-02-23T02:58:11;-0.60;99.90
16160;DHT22;8185;57.818;15.224;2023-02-23T03:00:40;-0.60;99.90
16160;DHT22;8185;57.818;15.224;2023-02-23T03:03:30;-0.60;99.90
16160;DHT22;8185;57.818;15.224;2023-02-23T03:06:15;-0.50;99.90
16160;DHT22;8185;57.818;15.224;2023-02-23T03:09:08;-0.60;99.90
16160;DHT22;8185;57.818;15.224;2023-02-23T03:12:03;-0.60;99.90
16160;DHT22;8185;57.818;15.224;2023-02-23T03:14:54;-0.60;99.90
16160;DHT22;8185;57.818;15.224;2023-02-23T03:17:44;-0.60;99.90
16160;DHT22;8185;57.818;15.224;2023-02-23T03:20:39;-0.60;99.90
16160;DHT22;8185;57.818;15.224;2023-02-23T03:23:33;-0.60;99.90
16160;DHT22;8185;57.818;15.224;2023-02-23T03:26:27;-0.60;99.90
16160;DHT22;8185;57.818;15.224;2023-02-23T03:29:18;-0.60;99.90
16160;DHT22;8185;57.818;15.224;2023-02-23T03:32:09;-0.70;99.90
16160;DHT22;8185;57.818;15.224;2023-02-23T03:35:03;-0.70;99.90
16160;DHT22;8185;57.818;15.224;2023-02-23T03:37:54;-0.70;99.90
16160;DHT22;8185;57.818;15.224;2023-02-23T03:40:42;-0.80;99.90
16160;DHT22;8185;57.818;15.224;2023-02-23T03:43:32;-0.80;99.90
16160;DHT22;8185;57.818;15.224;2023-02-23T03:46:19;-0.80;99.90
16160;DHT22;8185;57.818;15.224;2023-02-23T03:49:08;-0.80;99.90
16160;DHT22;8185;57.818;15.224;2023-02-23T03:51:57;-0.80;99.90
16160;DHT22;8185;57.818;15.224;2023-02-23T03:54:46;-0.80;99.90
16160;DHT22;8185;57.818;15.224;2023-02-23T03:57:34;-0.80;99.90
16160;DHT22;8185;57.818;15.224;2023-02-23T04:00:26;-0.80;99.90
16160;DHT22;8185;57.818;15.224;2023-02-23T04:03:14;-0.80;99.90
16160;DHT22;8185;57.818;15.224;2023-02-23T04:06:00;-0.90;99.90
16160;DHT22;8185;57.818;15.224;2023-02-23T04:08:45;-0.90;99.90
16160;DHT22;8185;57.818;15.224;2023-02-23T04:11:36;-0.90;99.90
16160;DHT22;8185;57.818;15.224;2023-02-23T04:14:26;-0.80;99.90
16160;DHT22;8185;57.818;15.224;2023-02-23T04:16:56;-0.80;99.90
16160;DHT22;8185;57.818;15.224;2023-02-23T04:19:25;-0.90;99.90
16160;DHT22;8185;57.818;15.224;2023-02-23T04:21:53;-0.80;99.90
16160;DHT22;8185;57.818;15.224;2023-02-23T04:24:21;-0.80;99.90
16160;DHT22;8185;57.818;15.224;2023-02-23T04:26:48;-0.80;99.90
16160;DHT22;8185;57.818;15.224;2023-02-23T04:29:15;-0.80;99.90
16160;DHT22;8185;57.818;15.224;2023-02-23T04:31:43;-0.80;99.90
16160;DHT22;8185;57.818;15.224;2023-02-23T04:34:12;-0.80;99.90
16160;DHT22;8185;57.818;15.224;2023-02-23T04:36:39;-0.80;99.90
16160;DHT22;8185;57.818;15.224;2023-02-23T04:39:07;-0.80;99.90
16160;DHT22;8185;57.818;15.224;2023-02-23T04:41:34;-0.80;99.90
16160;DHT22;8185;57.818;15.224;2023-02-23T04:44:01;-0.80;99.90
16160;DHT22;8185;57.818;15.224;2023-02-23T04:46:29;-0.80;99.90
16160;DHT22;8185;57.818;15.224;2023-02-23T04:48:57;-0.80;99.90
16160;DHT22;8185;57.818;15.224;2023-02-23T04:51:25;-0.80;99.90
16160;DHT22;8185;57.818;15.224;2023-02-23T04:53:57;-0.80;99.90
16160;DHT22;8185;57.818;15.224;2023-02-23T04:56:24;-0.80;99.90
16160;DHT22;8185;57.818;15.224;2023-02-23T04:58:51;-0.80;99.90
16160;DHT22;8185;57.818;15.224;2023-02-23T05:01:19;-0.70;99.90
16160;DHT22;8185;57.818;15.224;2023-02-23T05:03:47;-0.70;99.90
16160;DHT22;8185;57.818;15.224;2023-02-23T05:06:14;-0.70;99.90
16160;DHT22;8185;57.818;15.224;2023-02-23T05:08:43;-0.70;99.90
16160;DHT22;8185;57.818;15.224;2023-02-23T05:11:10;-0.70;99.90
16160;DHT22;8185;57.818;15.224;2023-02-23T05:13:38;-0.70;99.90
16160;DHT22;8185;57.818;15.224;2023-02-23T05:16:06;-0.70;99.90
16160;DHT22;8185;57.818;15.224;2023-02-23T05:18:33;-0.70;99.90
16160;DHT22;8185;57.818;15.224;2023-02-23T05:21:01;-0.70;99.90
16160;DHT22;8185;57.818;15.224;2023-02-23T05:23:28;-0.70;99.90
16160;DHT22;8185;57.818;15.224;2023-02-23T05:26:00;-0.70;99.90
16160;DHT22;8185;57.818;15.224;2023-02-23T05:28:30;-0.70;99.90
16160;DHT22;8185;57.818;15.224;2023-02-23T05:30:58;-0.70;99.90
16160;DHT22;8185;57.818;15.224;2023-02-23T05:33:25;-0.70;99.90
16160;DHT22;8185;57.818;15.224;2023-02-23T05:35:52;-0.70;99.90
16160;DHT22;8185;57.818;15.224;2023-02-23T05:38:20;-0.60;99.90
16160;DHT22;8185;57.818;15.224;2023-02-23T05:40:47;-0.60;99.90
16160;DHT22;8185;57.818;15.224;2023-02-23T05:43:16;-0.60;99.90
16160;DHT22;8185;57.818;15.224;2023-02-23T05:45:43;-0.60;99.90
16160;DHT22;8185;57.818;15.224;2023-02-23T05:48:11;-0.60;99.90
16160;DHT22;8185;57.818;15.224;2023-02-23T05:50:38;-0.60;99.90
16160;DHT22;8185;57.818;15.224;2023-02-23T05:53:05;-0.60;99.90
16160;DHT22;8185;57.818;15.224;2023-02-23T05:55:32;-0.60;99.90
16160;DHT22;8185;57.818;15.224;2023-02-23T05:58:02;-0.60;99.90
16160;DHT22;8185;57.818;15.224;2023-02-23T06:00:31;-0.60;99.90
16160;DHT22;8185;57.818;15.224;2023-02-23T06:02:58;-0.50;99.90
16160;DHT22;8185;57.818;15.224;2023-02-23T06:05:25;-0.50;99.90
16160;DHT22;8185;57.818;15.224;2023-02-23T06:07:53;-0.60;99.90
16160;DHT22;8185;57.818;15.224;2023-02-23T06:10:22;-0.50;99.90
16160;DHT22;8185;57.818;15.224;2023-02-23T06:12:49;-0.50;99.90
16160;DHT22;8185;57.818;15.224;2023-02-23T06:15:16;-0.50;99.90
16160;DHT22;8185;57.818;15.224;2023-02-23T06:17:44;-0.50;99.90
16160;DHT22;8185;57.818;15.224;2023-02-23T06:20:12;-0.50;99.90
16160;DHT22;8185;57.818;15.224;2023-02-23T06:22:39;-0.40;99.90
16160;DHT22;8185;57.818;15.224;2023-02-23T06:25:07;-0.40;99.90
16160;DHT22;8185;57.818;15.224;2023-02-23T06:27:38;-0.30;99.90
16160;DHT22;8185;57.818;15.224;2023-02-23T06:30:06;-0.30;99.90
16160;DHT22;8185;57.818;15.224;2023-02-23T06:32:33;-0.30;99.90
16160;DHT22;8185;57.818;15.224;2023-02-23T06:35:01;-0.30;99.90
16160;DHT22;8185;57.818;15.224;2023-02-23T06:37:30;-0.30;99.90
16160;DHT22;8185;57.818;15.224;2023-02-23T06:39:57;-0.20;99.90
16160;DHT22;8185;57.818;15.224;2023-02-23T06:42:25;-0.20;99.90
16160;DHT22;8185;57.818;15.224;2023-02-23T06:44:52;-0.20;99.90
16160;DHT22;8185;57.818;15.224;2023-02-23T06:47:19;-0.10;99.90
16160;DHT22;8185;57.818;15.224;2023-02-23T06:49:46;-0.10;99.90
16160;DHT22;8185;57.818;15.224;2023-02-23T06:52:15;-0.10;99.90
16160;DHT22;8185;57.818;15.224;2023-02-23T06:54:42;-0.10;99.90
16160;DHT22;8185;57.818;15.224;2023-02-23T06:57:09;0.00;99.90
16160;DHT22;8185;57.818;15.224;2023-02-23T06:59:36;0.00;99.90
16160;DHT22;8185;57.818;15.224;2023-02-23T07:02:04;0.10;99.90
16160;DHT22;8185;57.818;15.224;2023-02-23T07:04:31;0.10;99.90
16160;DHT22;8185;57.818;15.224;2023-02-23T07:06:58;0.10;99.90
16160;DHT22;8185;57.818;15.224;2023-02-23T07:09:27;0.20;99.90
16160;DHT22;8185;57.818;15.224;2023-02-23T07:11:55;0.20;99.90
16160;DHT22;8185;57.818;15.224;2023-02-23T07:14:22;0.20;99.90
16160;DHT22;8185;57.818;15.224;2023-02-23T07:16:49;0.20;99.90
16160;DHT22;8185;57.818;15.224;2023-02-23T07:19:17;0.20;99.90
16160;DHT22;8185;57.818;15.224;2023-02-23T07:21:44;0.30;99.90
16160;DHT22;8185;57.818;15.224;2023-02-23T07:24:11;0.30;99.90
16160;DHT22;8185;57.818;15.224;2023-02-23T07:26:40;0.30;99.90
16160;DHT22;8185;57.818;15.224;2023-02-23T07:29:12;0.30;99.90
16160;DHT22;8185;57.818;15.224;2023-02-23T07:31:39;0.30;99.90
16160;DHT22;8185;57.818;15.224;2023-02-23T07:34:07;0.40;99.90
16160;DHT22;8185;57.818;15.224;2023-02-23T07:36:35;0.40;99.90
16160;DHT22;8185;57.818;15.224;2023-02-23T07:39:02;0.40;99.90
16160;DHT22;8185;57.818;15.224;2023-02-23T07:41:29;0.40;99.90
16160;DHT22;8185;57.818;15.224;2023-02-23T07:43:58;0.50;99.90
16160;DHT22;8185;57.818;15.224;2023-02-23T07:46:26;0.50;99.90
16160;DHT22;8185;57.818;15.224;2023-02-23T07:48:53;0.50;99.90
16160;DHT22;8185;57.818;15.224;2023-02-23T07:51:20;0.50;99.90
16160;DHT22;8185;57.818;15.224;2023-02-23T07:53:47;0.60;99.90
16160;DHT22;8185;57.818;15.224;2023-02-23T07:56:15;0.60;99.90
16160;DHT22;8185;57.818;15.224;2023-02-23T07:58:43;0.60;99.90
16160;DHT22;8185;57.818;15.224;2023-02-23T08:01:12;0.60;99.90
16160;DHT22;8185;57.818;15.224;2023-02-23T08:03:39;0.60;99.90
16160;DHT22;8185;57.818;15.224;2023-02-23T08:06:14;0.70;99.90
16160;DHT22;8185;57.818;15.224;2023-02-23T08:08:42;0.70;99.90
16160;DHT22;8185;57.818;15.224;2023-02-23T08:11:09;0.70;99.90
16160;DHT22;8185;57.818;15.224;2023-02-23T08:13:37;0.70;99.90
16160;DHT22;8185;57.818;15.224;2023-02-23T08:16:04;0.70;99.90
16160;DHT22;8185;57.818;15.224;2023-02-23T08:18:33;0.80;99.90
16160;DHT22;8185;57.818;15.224;2023-02-23T08:21:02;0.70;99.90
16160;DHT22;8185;57.818;15.224;2023-02-23T08:23:30;0.80;99.90
16160;DHT22;8185;57.818;15.224;2023-02-23T08:25:58;0.80;99.90
16160;DHT22;8185;57.818;15.224;2023-02-23T08:28:26;0.80;99.90
16160;DHT22;8185;57.818;15.224;2023-02-23T08:30:53;0.80;99.90
16160;DHT22;8185;57.818;15.224;2023-02-23T08:33:20;0.80;99.90
16160;DHT22;8185;57.818;15.224;2023-02-23T08:35:49;0.90;99.90
16160;DHT22;8185;57.818;15.224;2023-02-23T08:38:18;0.90;99.90
16160;DHT22;8185;57.818;15.224;2023-02-23T08:40:45;0.90;99.90
16160;DHT22;8185;57.818;15.224;2023-02-23T08:43:13;0.90;99.90
16160;DHT22;8185;57.818;15.224;2023-02-23T08:45:40;0.90;99.90
16160;DHT22;8185;57.818;15.224;2023-02-23T08:48:07;0.90;99.90
16160;DHT22;8185;57.818;15.224;2023-02-23T08:50:34;0.90;99.90
16160;DHT22;8185;57.818;15.224;2023-02-23T08:53:03;0.90;99.90
16160;DHT22;8185;57.818;15.224;2023-02-23T08:55:31;0.90;99.90
16160;DHT22;8185;57.818;15.224;2023-02-23T08:58:00;1.00;99.90
16160;DHT22;8185;57.818;15.224;2023-02-23T09:00:27;0.90;99.90
16160;DHT22;8185;57.818;15.224;2023-02-23T09:02:56;0.90;99.90
16160;DHT22;8185;57.818;15.224;2023-02-23T09:05:23;1.00;99.90
16160;DHT22;8185;57.818;15.224;2023-02-23T09:07:50;1.00;99.90
16160;DHT22;8185;57.818;15.224;2023-02-23T09:10:19;1.00;99.90
16160;DHT22;8185;57.818;15.224;2023-02-23T09:12:49;1.00;99.90
16160;DHT22;8185;57.818;15.224;2023-02-23T09:15:16;1.00;99.90
16160;DHT22;8185;57.818;15.224;2023-02-23T09:17:44;1.00;99.90
16160;DHT22;8185;57.818;15.224;2023-02-23T09:20:13;1.00;99.90
16160;DHT22;8185;57.818;15.224;2023-02-23T09:22:41;1.00;99.90
16160;DHT22;8185;57.818;15.224;2023-02-23T09:25:10;1.00;99.90
16160;DHT22;8185;57.818;15.224;2023-02-23T09:27:39;1.00;99.90
16160;DHT22;8185;57.818;15.224;2023-02-23T09:30:07;1.00;99.90
16160;DHT22;8185;57.818;15.224;2023-02-23T09:32:34;1.00;99.90
16160;DHT22;8185;57.818;15.224;2023-02-23T09:35:02;1.00;99.90
16160;DHT22;8185;57.818;15.224;2023-02-23T09:37:29;1.00;99.90
16160;DHT22;8185;57.818;15.224;2023-02-23T09:39:56;1.10;99.90
16160;DHT22;8185;57.818;15.224;2023-02-23T09:42:36;1.10;99.90
16160;DHT22;8185;57.818;15.224;2023-02-23T09:45:30;1.20;99.90
16160;DHT22;8185;57.818;15.224;2023-02-23T09:48:10;1.20;99.90
16160;DHT22;8185;57.818;15.224;2023-02-23T09:50:44;1.20;99.90
16160;DHT22;8185;57.818;15.224;2023-02-23T09:53:25;1.20;99.90
16160;DHT22;8185;57.818;15.224;2023-02-23T09:55:55;1.30;99.90
16160;DHT22;8185;57.818;15.224;2023-02-23T09:58:25;1.40;99.90
16160;DHT22;8185;57.818;15.224;2023-02-23T10:01:15;1.40;99.90
16160;DHT22;8185;57.818;15.224;2023-02-23T10:03:49;1.50;99.90
16160;DHT22;8185;57.818;15.224;2023-02-23T10:06:19;1.60;99.90
16160;DHT22;8185;57.818;15.224;2023-02-23T10:08:55;1.60;99.90
16160;DHT22;8185;57.818;15.224;2023-02-23T10:11:30;1.70;99.90
16160;DHT22;8185;57.818;15.224;2023-02-23T10:14:11;1.80;99.90
16160;DHT22;8185;57.818;15.224;2023-02-23T10:16:53;1.80;99.90
16160;DHT22;8185;57.818;15.224;2023-02-23T10:19:30;1.80;99.90
16160;DHT22;8185;57.818;15.224;2023-02-23T10:22:02;1.80;99.90
16160;DHT22;8185;57.818;15.224;2023-02-23T10:24:35;1.90;99.90
16160;DHT22;8185;57.818;15.224;2023-02-23T10:27:07;1.90;99.90
16160;DHT22;8185;57.818;15.224;2023-02-23T10:29:40;1.90;99.90
16160;DHT22;8185;57.818;15.224;2023-02-23T10:32:19;1.80;99.90
16160;DHT22;8185;57.818;15.224;2023-02-23T10:34:48;1.70;99.90
16160;DHT22;8185;57.818;15.224;2023-02-23T10:37:19;1.80;99.90
16160;DHT22;8185;57.818;15.224;2023-02-23T10:39:46;1.80;99.90
16160;DHT22;8185;57.818;15.224;2023-02-23T10:42:19;1.80;99.90
16160;DHT22;8185;57.818;15.224;2023-02-23T10:44:48;1.70;99.90
16160;DHT22;8185;57.818;15.224;2023-02-23T10:47:19;1.70;99.90
16160;DHT22;8185;57.818;15.224;2023-02-23T10:49:48;1.70;99.90
16160;DHT22;8185;57.818;15.224;2023-02-23T10:52:20;1.70;99.90
16160;DHT22;8185;57.818;15.224;2023-02-23T10:54:49;1.60;99.90
16160;DHT22;8185;57.818;15.224;2023-02-23T10:57:22;1.60;99.90
16160;DHT22;8185;57.818;15.224;2023-02-23T11:00:24;1.60;99.90
16160;DHT22;8185;57.818;15.224;2023-02-23T11:02:57;1.60;99.90
16160;DHT22;8185;57.818;15.224;2023-02-23T11:05:36;1.60;99.90
16160;DHT22;8185;57.818;15.224;2023-02-23T11:08:22;1.60;99.90
16160;DHT22;8185;57.818;15.224;2023-02-23T11:11:05;1.60;99.90
16160;DHT22;8185;57.818;15.224;2023-02-23T11:13:36;1.70;99.90
16160;DHT22;8185;57.818;15.224;2023-02-23T11:16:06;1.70;99.90
16160;DHT22;8185;57.818;15.224;2023-02-23T11:18:37;1.70;99.90
16160;DHT22;8185;57.818;15.224;2023-02-23T11:21:12;1.70;99.90
16160;DHT22;8185;57.818;15.224;2023-02-23T11:23:43;1.60;99.90
16160;DHT22;8185;57.818;15.224;2023-02-23T11:26:32;1.70;99.90
16160;DHT22;8185;57.818;15.224;2023-02-23T11:29:11;1.60;99.90
16160;DHT22;8185;57.818;15.224;2023-02-23T11:31:41;1.60;99.90
16160;DHT22;8185;57.818;15.224;2023-02-23T11:34:21;1.60;99.90
16160;DHT22;8185;57.818;15.224;2023-02-23T11:36:58;1.70;99.90
16160;DHT22;8185;57.818;15.224;2023-02-23T11:39:25;1.70;99.90
16160;DHT22;8185;57.818;15.224;2023-02-23T11:42:15;1.70;99.90
16160;DHT22;8185;57.818;15.224;2023-02-23T11:44:49;1.70;99.90
16160;DHT22;8185;57.818;15.224;2023-02-23T11:47:18;1.70;99.90
16160;DHT22;8185;57.818;15.224;2023-02-23T11:49:49;1.80;99.90
16160;DHT22;8185;57.818;15.224;2023-02-23T11:52:20;1.80;99.90
16160;DHT22;8185;57.818;15.224;2023-02-23T11:54:51;1.90;99.90
16160;DHT22;8185;57.818;15.224;2023-02-23T11:57:21;1.90;99.90
16160;DHT22;8185;57.818;15.224;2023-02-23T11:59:49;2.10;99.90
16160;DHT22;8185;57.818;15.224;2023-02-23T12:02:22;2.10;99.90
16160;DHT22;8185;57.818;15.224;2023-02-23T12:05:00;2.20;99.90
16160;DHT22;8185;57.818;15.224;2023-02-23T12:07:37;2.30;99.90
16160;DHT22;8185;57.818;15.224;2023-02-23T12:10:12;2.30;99.90
16160;DHT22;8185;57.818;15.224;2023-02-23T12:12:56;2.30;99.90
16160;DHT22;8185;57.818;15.224;2023-02-23T12:15:30;2.30;99.90
16160;DHT22;8185;57.818;15.224;2023-02-23T12:18:05;2.20;99.90
16160;DHT22;8185;57.818;15.224;2023-02-23T12:20:41;2.20;99.90
16160;DHT22;8185;57.818;15.224;2023-02-23T12:23:12;2.20;99.90
16160;DHT22;8185;57.818;15.224;2023-02-23T12:25:46;2.30;99.90
16160;DHT22;8185;57.818;15.224;2023-02-23T12:28:19;2.50;99.90
16160;DHT22;8185;57.818;15.224;2023-02-23T12:30:54;2.50;99.90
16160;DHT22;8185;57.818;15.224;2023-02-23T12:33:26;2.60;99.90
16160;DHT22;8185;57.818;15.224;2023-02-23T12:36:03;2.70;99.90
16160;DHT22;8185;57.818;15.224;2023-02-23T12:38:45;2.50;99.90
16160;DHT22;8185;57.818;15.224;2023-02-23T12:41:19;2.50;99.90
16160;DHT22;8185;57.818;15.224;2023-02-23T12:43:49;2.40;99.90
16160;DHT22;8185;57.818;15.224;2023-02-23T12:46:21;2.30;99.90
16160;DHT22;8185;57.818;15.224;2023-02-23T12:48:59;2.30;99.90
16160;DHT22;8185;57.818;15.224;2023-02-23T12:51:32;2.30;99.90
16160;DHT22;8185;57.818;15.224;2023-02-23T12:54:01;2.30;99.90
16160;DHT22;8185;57.818;15.224;2023-02-23T12:56:42;2.20;99.90
16160;DHT22;8185;57.818;15.224;2023-02-23T12:59:48;2.20;99.90
16160;DHT22;8185;57.818;15.224;2023-02-23T13:02:24;2.20;99.90
16160;DHT22;8185;57.818;15.224;2023-02-23T13:05:18;2.30;99.90
16160;DHT22;8185;57.818;15.224;2023-02-23T13:07:58;2.10;99.90
16160;DHT22;8185;57.818;15.224;2023-02-23T13:10:31;2.10;99.90
16160;DHT22;8185;57.818;15.224;2023-02-23T13:13:15;2.00;99.90
16160;DHT22;8185;57.818;15.224;2023-02-23T13:15:52;2.10;99.90
16160;DHT22;8185;57.818;15.224;2023-02-23T13:18:28;2.10;99.90
16160;DHT22;8185;57.818;15.224;2023-02-23T13:21:01;1.90;99.90
16160;DHT22;8185;57.818;15.224;2023-02-23T13:23:36;2.00;99.90
16160;DHT22;8185;57.818;15.224;2023-02-23T13:26:13;2.00;99.90
16160;DHT22;8185;57.818;15.224;2023-02-23T13:28:50;2.00;99.90
16160;DHT22;8185;57.818;15.224;2023-02-23T13:31:26;1.90;99.90
16160;DHT22;8185;57.818;15.224;2023-02-23T13:33:56;2.00;99.90
16160;DHT22;8185;57.818;15.224;2023-02-23T13:36:27;2.00;99.90
16160;DHT22;8185;57.818;15.224;2023-02-23T13:39:18;2.00;99.90
16160;DHT22;8185;57.818;15.224;2023-02-23T13:42:02;1.90;99.90
16160;DHT22;8185;57.818;15.224;2023-02-23T13:44:34;1.90;99.90
16160;DHT22;8185;57.818;15.224;2023-02-23T13:47:11;1.90;99.90
16160;DHT22;8185;57.818;15.224;2023-02-23T13:49:45;1.80;99.90
16160;DHT22;8185;57.818;15.224;2023-02-23T13:52:22;1.80;99.90
16160;DHT22;8185;57.818;15.224;2023-02-23T13:54:56;1.80;99.90
16160;DHT22;8185;57.818;15.224;2023-02-23T13:57:27;1.80;99.90
16160;DHT22;8185;57.818;15.224;2023-02-23T13:59:55;1.90;99.90
16160;DHT22;8185;57.818;15.224;2023-02-23T14:02:31;1.90;99.90
16160;DHT22;8185;57.818;15.224;2023-02-23T14:05:06;1.80;99.90
16160;DHT22;8185;57.818;15.224;2023-02-23T14:07:42;1.80;99.90
16160;DHT22;8185;57.818;15.224;2023-02-23T14:10:19;1.90;99.90
16160;DHT22;8185;57.818;15.224;2023-02-23T14:13:06;1.80;99.90
16160;DHT22;8185;57.818;15.224;2023-02-23T14:15:43;1.80;99.90
16160;DHT22;8185;57.818;15.224;2023-02-23T14:18:31;1.90;99.90
16160;DHT22;8185;57.818;15.224;2023-02-23T14:21:21;1.90;99.90
16160;DHT22;8185;57.818;15.224;2023-02-23T14:24:00;1.80;99.90
16160;DHT22;8185;57.818;15.224;2023-02-23T14:26:43;1.70;99.90
16160;DHT22;8185;57.818;15.224;2023-02-23T14:29:23;1.80;99.90
16160;DHT22;8185;57.818;15.224;2023-02-23T14:32:00;1.80;99.90
16160;DHT22;8185;57.818;15.224;2023-02-23T14:34:47;1.80;99.90
16160;DHT22;8185;57.818;15.224;2023-02-23T14:37:22;1.70;99.90
16160;DHT22;8185;57.818;15.224;2023-02-23T14:39:52;1.70;99.90
16160;DHT22;8185;57.818;15.224;2023-02-23T14:42:24;1.70;99.90
16160;DHT22;8185;57.818;15.224;2023-02-23T14:44:52;1.70;99.90
16160;DHT22;8185;57.818;15.224;2023-02-23T14:47:21;1.70;99.90
16160;DHT22;8185;57.818;15.224;2023-02-23T14:49:51;1.80;99.90
16160;DHT22;8185;57.818;15.224;2023-02-23T14:52:22;1.70;99.90
16160;DHT22;8185;57.818;15.224;2023-02-23T14:54:51;1.70;99.90
16160;DHT22;8185;57.818;15.224;2023-02-23T14:57:20;1.60;99.90
16160;DHT22;8185;57.818;15.224;2023-02-23T14:59:56;1.70;99.90
16160;DHT22;8185;57.818;15.224;2023-02-23T15:02:26;1.70;99.90
16160;DHT22;8185;57.818;15.224;2023-02-23T15:04:53;1.70;99.90
16160;DHT22;8185;57.818;15.224;2023-02-23T15:07:27;1.80;99.90
16160;DHT22;8185;57.818;15.224;2023-02-23T15:09:58;1.80;99.90
16160;DHT22;8185;57.818;15.224;2023-02-23T15:12:28;1.80;99.90
16160;DHT22;8185;57.818;15.224;2023-02-23T15:14:59;1.80;99.90
16160;DHT22;8185;57.818;15.224;2023-02-23T15:17:28;1.70;99.90
16160;DHT22;8185;57.818;15.224;2023-02-23T15:20:00;1.70;99.90
16160;DHT22;8185;57.818;15.224;2023-02-23T15:22:30;1.70;99.90
16160;DHT22;8185;57.818;15.224;2023-02-23T15:25:00;1.70;99.90
16160;DHT22;8185;57.818;15.224;2023-02-23T15:27:34;1.70;99.90
16160;DHT22;8185;57.818;15.224;2023-02-23T15:30:20;1.60;99.90
16160;DHT22;8185;57.818;15.224;2023-02-23T15:32:48;1.60;99.90
16160;DHT22;8185;57.818;15.224;2023-02-23T15:35:15;1.60;99.90
16160;DHT22;8185;57.818;15.224;2023-02-23T15:37:45;1.60;99.90
16160;DHT22;8185;57.818;15.224;2023-02-23T15:40:16;1.50;99.90
16160;DHT22;8185;57.818;15.224;2023-02-23T15:42:48;1.60;99.90
16160;DHT22;8185;57.818;15.224;2023-02-23T15:45:23;1.60;99.90
16160;DHT22;8185;57.818;15.224;2023-02-23T15:47:55;1.70;99.90
16160;DHT22;8185;57.818;15.224;2023-02-23T15:50:27;1.70;99.90
16160;DHT22;8185;57.818;15.224;2023-02-23T15:52:58;1.70;99.90
16160;DHT22;8185;57.818;15.224;2023-02-23T15:55:29;1.60;99.90
16160;DHT22;8185;57.818;15.224;2023-02-23T15:58:09;1.60;99.90
16160;DHT22;8185;57.818;15.224;2023-02-23T16:00:43;1.60;99.90
16160;DHT22;8185;57.818;15.224;2023-02-23T16:03:23;1.60;99.90
16160;DHT22;8185;57.818;15.224;2023-02-23T16:05:58;1.50;99.90
16160;DHT22;8185;57.818;15.224;2023-02-23T16:08:26;1.50;99.90
16160;DHT22;8185;57.818;15.224;2023-02-23T16:11:01;1.50;99.90
16160;DHT22;8185;57.818;15.224;2023-02-23T16:13:30;1.40;99.90
16160;DHT22;8185;57.818;15.224;2023-02-23T16:15:59;1.40;99.90
16160;DHT22;8185;57.818;15.224;2023-02-23T16:18:34;1.40;99.90
16160;DHT22;8185;57.818;15.224;2023-02-23T16:21:03;1.40;99.90
16160;DHT22;8185;57.818;15.224;2023-02-23T16:23:33;1.30;99.90
16160;DHT22;8185;57.818;15.224;2023-02-23T16:26:07;1.30;99.90
16160;DHT22;8185;57.818;15.224;2023-02-23T16:28:39;1.30;99.90